Time;durP1;ratioP1;P1;durP2;ratioP2;P2;SDS_P1;SDS_P2;PMS_P1;PMS_P2;Temp;Humidity;BMP_temperature;BMP_pressure;BME280_temperature;BME280_humidity;BME280_pressure;Samples;Min_cycle;Max_cycle;Signal;HPM_P1;HPM_P2
2022/11/04 00:01:41;;;;;;;63.33;44.03;;;;;;;7.61;100.00;100202.89;1804520;79;21319;-61
2022/11/04 00:04:09;;;;;;;58.47;42.43;;;;;;;7.73;100.00;100199.00;1804260;79;21924;-61
2022/11/04 00:06:36;;;;;;;63.73;44.63;;;;;;;7.62;100.00;100203.73;1803450;78;21271;-59
2022/11/04 00:09:05;;;;;;;59.97;42.80;;;;;;;7.60;100.00;100204.37;1803817;79;21493;-60
2022/11/04 00:14:19;;;;;;;49.40;33.00;;;;;;;7.67;100.00;100197.55;1803203;79;20970;-59
2022/11/04 00:30:37;;;;;;;40.67;27.87;;;;;;;7.68;100.00;100190.89;1803575;79;22080;-61
2022/11/04 00:35:50;;;;;;;40.73;28.60;;;;;;;7.71;100.00;100189.27;1803967;79;21216;-60
2022/11/04 00:38:17;;;;;;;35.40;26.30;;;;;;;7.66;100.00;100191.55;1803889;79;21676;-60
2022/11/04 00:41:24;;;;;;;44.27;29.80;;;;;;;7.54;100.00;100192.39;1803997;79;21241;-59
2022/11/04 00:43:32;;;;;;;41.93;30.30;;;;;;;7.58;100.00;100192.87;1799775;79;21171;-60
2022/11/04 00:45:59;;;;;;;43.33;30.30;;;;;;;7.61;100.00;100197.70;1803733;79;21065;-59
2022/11/04 00:48:26;;;;;;;38.30;28.70;;;;;;;7.62;100.00;100186.37;1803132;79;21145;-69
2022/11/04 00:50:54;;;;;;;36.87;26.13;;;;;;;7.59;100.00;100192.38;1803843;79;21434;-59
2022/11/04 00:53:21;;;;;;;36.37;25.97;;;;;;;7.60;100.00;100191.40;1803730;79;21272;-59
2022/11/04 00:55:48;;;;;;;35.63;26.20;;;;;;;7.58;100.00;100184.25;1804089;79;21150;-59
2022/11/04 00:58:16;;;;;;;34.67;24.17;;;;;;;7.63;100.00;100189.78;1803780;79;21078;-59
2022/11/04 01:00:44;;;;;;;35.57;23.30;;;;;;;7.61;100.00;100194.30;1803287;79;21238;-58
2022/11/04 01:03:11;;;;;;;33.77;24.17;;;;;;;7.61;100.00;100193.01;1803798;79;21575;-58
2022/11/04 01:05:38;;;;;;;35.23;24.77;;;;;;;7.64;100.00;100190.89;1803903;79;21141;-59
2022/11/04 01:08:06;;;;;;;34.60;25.40;;;;;;;7.75;100.00;100188.44;1804030;79;21352;-59
2022/11/04 01:10:35;;;;;;;33.87;24.80;;;;;;;7.80;100.00;100186.98;1803298;79;21101;-63
2022/11/04 01:13:03;;;;;;;34.67;26.67;;;;;;;7.78;100.00;100194.11;1803711;79;22468;-59
2022/11/04 01:15:31;;;;;;;32.80;23.90;;;;;;;7.75;100.00;100189.73;1803799;79;21083;-59
2022/11/04 01:17:59;;;;;;;32.87;25.23;;;;;;;7.73;100.00;100186.52;1803909;79;21112;-61
2022/11/04 01:20:26;;;;;;;36.07;26.10;;;;;;;7.71;100.00;100190.56;1803160;79;21251;-60
2022/11/04 01:22:53;;;;;;;33.23;25.53;;;;;;;7.69;100.00;100181.31;1803729;79;21236;-60
2022/11/04 01:25:20;;;;;;;33.83;23.73;;;;;;;7.71;100.00;100181.97;1803728;79;21739;-60
2022/11/04 01:27:49;;;;;;;36.20;23.87;;;;;;;7.69;100.00;100183.91;1803620;79;21117;-60
2022/11/04 01:30:16;;;;;;;33.43;25.40;;;;;;;7.60;100.00;100188.80;1803626;79;21141;-60
2022/11/04 01:32:43;;;;;;;33.03;24.80;;;;;;;7.55;100.00;100188.01;1803491;79;21965;-61
2022/11/04 01:35:11;;;;;;;34.57;24.83;;;;;;;7.55;100.00;100193.20;1803611;79;21292;-58
2022/11/04 01:37:38;;;;;;;36.37;25.47;;;;;;;7.57;100.00;100191.23;1803917;79;21443;-58
2022/11/04 01:40:07;;;;;;;31.23;23.73;;;;;;;7.64;100.00;100182.30;1803625;79;21146;-58
2022/11/04 01:42:35;;;;;;;31.63;23.33;;;;;;;7.73;100.00;100185.22;1803249;79;21284;-60
2022/11/04 01:45:02;;;;;;;31.37;22.97;;;;;;;7.71;100.00;100197.53;1803721;79;21960;-58
2022/11/04 01:47:37;;;;;;;33.10;22.93;;;;;;;7.71;100.00;100192.34;1803554;79;21280;-58
2022/11/04 01:50:13;;;;;;;33.30;23.50;;;;;;;7.70;100.00;100191.55;1802372;79;21662;-60
2022/11/04 01:53:01;;;;;;;35.33;25.07;;;;;;;7.70;100.00;100198.52;1803369;79;21209;-59
2022/11/04 01:55:32;;;;;;;46.40;32.90;;;;;;;7.68;100.00;100186.99;1798874;79;21260;-61
2022/11/04 01:58:06;;;;;;;49.25;33.80;;;;;;;7.55;100.00;100195.79;1766488;79;21218;-61
2022/11/04 02:00:37;;;;;;;58.40;39.87;;;;;;;7.51;100.00;100187.52;1796490;79;20921;-60
2022/11/04 02:03:19;;;;;;;57.80;40.03;;;;;;;7.51;100.00;100194.01;1796540;79;21703;-58
2022/11/04 02:05:47;;;;;;;76.80;48.93;;;;;;;7.44;100.00;100193.05;1795586;79;20881;-70
2022/11/04 02:08:15;;;;;;;72.50;48.97;;;;;;;7.49;100.00;100190.76;1796359;79;21682;-58
2022/11/04 02:10:47;;;;;;;82.20;57.13;;;;;;;7.44;100.00;100196.94;1796526;79;21098;-58
2022/11/04 02:13:14;;;;;;;89.20;57.10;;;;;;;7.42;100.00;100195.47;1795059;79;21255;-58
2022/11/04 02:16:04;;;;;;;84.70;56.90;;;;;;;7.42;100.00;100193.68;1796174;79;21224;-67
2022/11/04 02:19:10;;;;;;;98.90;62.27;;;;;;;7.40;100.00;100188.35;1796780;79;21143;-58
2022/11/04 02:22:03;;;;;;;98.70;61.90;;;;;;;7.35;100.00;100187.55;1796018;79;21184;-58
2022/11/04 02:24:42;;;;;;;100.30;64.47;;;;;;;7.31;100.00;100186.23;1795798;79;22336;-65
2022/11/04 02:27:44;;;;;;;95.60;59.93;;;;;;;7.28;100.00;100187.88;1796209;79;21247;-59
2022/11/04 02:30:17;;;;;;;99.33;65.63;;;;;;;7.18;100.00;100185.93;1795709;79;21595;-58
2022/11/04 02:32:51;;;;;;;104.30;64.17;;;;;;;7.19;100.00;100184.95;1796421;79;21043;-58
2022/11/04 02:35:42;;;;;;;89.33;61.57;;;;;;;7.16;100.00;100183.97;1796430;79;21151;-58
2022/11/04 02:38:36;;;;;;;80.57;55.60;;;;;;;7.19;100.00;100176.69;1796583;79;21280;-58
2022/11/04 02:41:31;;;;;;;74.43;49.20;;;;;;;7.19;100.00;100175.39;1795975;79;20921;-60
2022/11/04 02:44:18;;;;;;;74.30;51.00;;;;;;;7.33;100.00;100176.52;1796221;79;20959;-58
2022/11/04 02:47:00;;;;;;;76.57;55.30;;;;;;;7.33;100.00;100175.72;1795993;79;21187;-58
2022/11/04 02:49:57;;;;;;;75.13;53.60;;;;;;;7.38;100.00;100182.02;1790589;79;21118;-58
2022/11/04 02:52:41;;;;;;;72.50;52.03;;;;;;;7.23;100.00;100175.87;1796386;79;21229;-58
2022/11/04 02:55:22;;;;;;;77.40;54.00;;;;;;;7.15;100.00;100179.28;1802123;79;21711;-58
2022/11/04 02:57:50;;;;;;;74.82;52.40;;;;;;;7.07;100.00;100181.39;1813084;79;21727;-58
2022/11/04 03:00:20;;;;;;;73.85;50.78;;;;;;;7.10;100.00;100184.15;1812854;79;21434;-58
2022/11/04 03:03:04;;;;;;;63.57;47.07;;;;;;;7.19;100.00;100180.57;1812924;79;21600;-58
2022/11/04 03:05:36;;;;;;;56.87;40.57;;;;;;;7.20;100.00;100180.92;1811706;79;21198;-58
2022/11/04 03:08:13;;;;;;;63.63;44.33;;;;;;;7.19;100.00;100175.87;1813023;78;21253;-58
2022/11/04 03:10:45;;;;;;;65.93;46.63;;;;;;;7.16;100.00;100175.73;1812815;78;20964;-57
2022/11/04 03:13:27;;;;;;;74.30;50.13;;;;;;;7.23;100.00;100174.58;1812408;78;21255;-59
2022/11/04 03:15:59;;;;;;;73.70;51.23;;;;;;;7.21;100.00;100170.86;1812509;79;21133;-58
2022/11/04 03:18:50;;;;;;;84.00;58.87;;;;;;;7.19;100.00;100171.50;1813030;78;21132;-60
2022/11/04 03:21:17;;;;;;;99.73;66.70;;;;;;;7.23;100.00;100171.98;1812321;78;21285;-59
2022/11/04 03:23:45;;;;;;;101.07;67.20;;;;;;;7.15;100.00;100171.99;1812541;79;21349;-58
2022/11/04 03:26:41;;;;;;;102.00;67.90;;;;;;;7.11;100.00;100167.62;1812855;78;21150;-58
2022/11/04 03:29:27;;;;;;;97.70;66.33;;;;;;;7.07;100.00;100161.95;1786313;79;21213;-58
2022/11/04 03:32:20;;;;;;;105.20;69.03;;;;;;;7.11;100.00;100157.73;1812672;79;21308;-59
2022/11/04 03:34:47;;;;;;;99.70;68.25;;;;;;;7.06;100.00;100157.74;1812735;78;21611;-58
2022/11/04 03:37:15;;;;;;;99.00;63.53;;;;;;;7.12;100.00;100156.76;1812857;79;21381;-59
2022/11/04 03:39:42;;;;;;;89.80;61.00;;;;;;;7.07;100.00;100159.36;1812396;79;21013;-67
2022/11/04 03:42:19;;;;;;;97.73;62.93;;;;;;;7.07;100.00;100163.73;1812885;78;21324;-62
2022/11/04 03:44:56;;;;;;;94.07;65.00;;;;;;;7.09;100.00;100158.41;1813005;79;21246;-58
2022/11/04 03:47:26;;;;;;;95.00;64.03;;;;;;;7.09;100.00;100161.00;1782953;79;21314;-60
2022/11/04 03:50:14;;;;;;;89.00;62.00;;;;;;;7.07;100.00;100155.47;1782248;79;21713;-59
2022/11/04 03:52:41;;;;;;;88.13;60.93;;;;;;;7.06;100.00;100152.56;1801925;79;21795;-60
2022/11/04 03:55:09;;;;;;;91.13;58.93;;;;;;;7.07;100.00;100154.17;1812210;79;21258;-60
2022/11/04 03:58:00;;;;;;;105.80;71.10;;;;;;;7.08;100.00;100156.27;1813144;79;22278;-59
2022/11/04 04:00:28;;;;;;;103.07;64.90;;;;;;;6.95;100.00;100160.66;1812993;78;21221;-74
2022/11/04 04:03:07;;;;;;;80.67;56.40;;;;;;;7.10;100.00;100158.72;1812434;79;21267;-59
2022/11/04 04:05:56;;;;;;;88.60;56.27;;;;;;;7.14;100.00;100162.61;1812931;79;21202;-59
2022/11/04 04:08:54;;;;;;;92.03;57.90;;;;;;;7.05;100.00;100164.40;1799610;79;21146;-61
2022/11/04 04:11:38;;;;;;;83.20;55.33;;;;;;;7.02;100.00;100167.31;1813058;79;21210;-59
2022/11/04 04:14:49;;;;;;;74.80;53.87;;;;;;;7.03;100.00;100171.02;1812936;79;21739;-59
2022/11/04 04:17:14;;;;;;;73.10;48.83;;;;;;;7.02;100.00;100175.89;1805672;79;21221;-67
2022/11/04 04:19:46;;;;;;;59.17;39.93;;;;;;;6.93;100.00;100174.73;1765990;79;21174;-59
2022/11/04 04:22:20;;;;;;;64.00;42.60;;;;;;;6.89;100.00;100176.84;1813150;78;21184;-58
2022/11/04 04:27:35;;;;;;;85.30;51.17;;;;;;;6.92;100.00;100180.90;1812569;79;21188;-60
2022/11/04 04:30:06;;;;;;;55.10;38.37;;;;;;;6.93;100.00;100181.22;1812897;79;21271;-59
2022/11/04 04:32:39;;;;;;;55.60;37.63;;;;;;;6.98;100.00;100182.37;1812759;78;21230;-72
2022/11/04 04:37:54;;;;;;;55.80;40.40;;;;;;;7.10;100.00;100184.64;1813120;79;21252;-60
2022/11/04 04:45:57;;;;;;;47.77;36.07;;;;;;;7.13;100.00;100198.09;1691239;83;21224;-74
2022/11/04 04:48:24;;;;;;;46.53;36.37;;;;;;;7.19;100.00;100201.80;1722217;82;21317;-60
2022/11/04 04:50:55;;;;;;;49.03;34.50;;;;;;;7.16;100.00;100200.83;1750465;82;21953;-60
2022/11/04 04:53:23;;;;;;;49.90;33.53;;;;;;;7.16;100.00;100198.23;1746901;81;21141;-61
2022/11/04 04:55:50;;;;;;;44.77;32.77;;;;;;;7.24;100.00;100204.25;1813200;79;21741;-74
2022/11/04 04:58:17;;;;;;;37.90;27.07;;;;;;;7.28;100.00;100207.33;1814753;79;21141;-59
2022/11/04 05:00:44;;;;;;;43.00;32.13;;;;;;;7.27;100.00;100219.95;1814953;79;21735;-59
2022/11/04 05:03:12;;;;;;;40.73;29.90;;;;;;;7.30;100.00;100218.33;1814893;79;21183;-59
2022/11/04 05:05:41;;;;;;;40.33;26.60;;;;;;;7.33;100.00;100218.01;1815009;78;21085;-60
2022/11/04 05:08:09;;;;;;;33.73;24.73;;;;;;;7.33;100.00;100220.60;1813880;79;21041;-60
2022/11/04 05:10:36;;;;;;;32.33;24.67;;;;;;;7.38;100.00;100227.39;1814785;79;21607;-60
2022/11/04 05:15:49;;;;;;;32.20;22.83;;;;;;;7.50;100.00;100227.41;1814501;79;21163;-67
2022/11/04 05:18:17;;;;;;;41.27;28.30;;;;;;;7.57;100.00;100227.55;1814862;79;21272;-59
2022/11/04 05:20:44;;;;;;;39.70;30.07;;;;;;;7.61;100.00;100224.14;1814867;79;21118;-59
2022/11/04 05:23:13;;;;;;;46.97;33.33;;;;;;;7.60;100.00;100219.94;1814720;78;21820;-61
2022/11/04 05:25:42;;;;;;;54.13;40.37;;;;;;;7.63;100.00;100227.39;1814812;79;21698;-72
2022/11/04 05:28:09;;;;;;;55.00;41.73;;;;;;;7.61;100.00;100228.83;1814376;79;23193;-59
2022/11/04 05:30:36;;;;;;;67.30;46.73;;;;;;;7.63;100.00;100232.58;1814685;79;21272;-59
2022/11/04 05:33:04;;;;;;;65.10;44.70;;;;;;;7.62;100.00;100238.75;1814971;79;21280;-62
2022/11/04 05:35:33;;;;;;;67.57;44.87;;;;;;;7.59;100.00;100241.17;1814850;79;21122;-62
2022/11/04 05:38:02;;;;;;;74.27;46.63;;;;;;;7.78;100.00;100242.61;1814532;79;21239;-60
2022/11/04 05:40:29;;;;;;;61.73;44.70;;;;;;;7.87;100.00;100248.09;1814808;79;21724;-59
2022/11/04 05:42:58;;;;;;;61.33;42.20;;;;;;;7.90;100.00;100243.87;1814577;79;21043;-59
2022/11/04 05:45:27;;;;;;;50.60;35.93;;;;;;;7.97;100.00;100246.63;1814737;79;21176;-59
2022/11/04 05:48:00;;;;;;;50.83;35.60;;;;;;;7.91;100.00;100251.98;1814513;79;21216;-70
2022/11/04 05:50:29;;;;;;;52.80;37.13;;;;;;;7.99;100.00;100251.98;1814741;79;21559;-59
2022/11/04 05:52:58;;;;;;;50.90;36.03;;;;;;;8.06;100.00;100253.41;1814895;79;21296;-59
2022/11/04 05:55:26;;;;;;;40.70;28.73;;;;;;;8.06;100.00;100258.59;1813507;79;21225;-59
2022/11/04 05:57:53;;;;;;;34.40;26.37;;;;;;;8.12;100.00;100262.33;1803635;79;21098;-63
2022/11/04 06:00:20;;;;;;;39.03;28.53;;;;;;;8.14;100.00;100263.76;1803250;79;21700;-59
2022/11/04 06:02:48;;;;;;;37.00;28.70;;;;;;;8.13;100.00;100267.83;1803920;79;21210;-59
2022/11/04 06:05:15;;;;;;;37.07;27.63;;;;;;;8.16;100.00;100274.00;1803921;79;21303;-60
2022/11/04 06:07:42;;;;;;;32.83;25.77;;;;;;;8.17;100.00;100279.50;1803879;79;21104;-59
2022/11/04 06:10:11;;;;;;;36.47;26.53;;;;;;;8.15;100.00;100277.09;1803346;79;21819;-60
2022/11/04 06:12:38;;;;;;;36.10;27.43;;;;;;;8.23;100.00;100277.55;1803522;79;21253;-59
2022/11/04 06:15:08;;;;;;;37.93;28.13;;;;;;;8.26;100.00;100277.22;1803335;79;21148;-59
2022/11/04 06:17:36;;;;;;;39.07;29.47;;;;;;;8.35;100.00;100287.09;1803580;79;21908;-60
2022/11/04 06:20:05;;;;;;;38.67;29.23;;;;;;;8.38;100.00;100281.09;1803419;79;21284;-77
2022/11/04 06:22:33;;;;;;;48.10;35.13;;;;;;;8.44;100.00;100277.81;1803660;79;21295;-60
2022/11/04 06:25:00;;;;;;;50.73;36.10;;;;;;;8.43;100.00;100286.59;1803728;79;21346;-62
2022/11/04 06:27:27;;;;;;;48.33;35.77;;;;;;;8.44;100.00;100283.00;1803656;79;21231;-60
2022/11/04 06:29:55;;;;;;;56.23;40.37;;;;;;;8.45;100.00;100287.73;1803081;79;21368;-61
2022/11/04 06:32:22;;;;;;;73.87;56.17;;;;;;;8.44;100.00;100293.40;1803571;79;21265;-60
2022/11/04 06:34:50;;;;;;;56.00;39.43;;;;;;;8.45;100.00;100289.04;1803420;79;21208;-59
2022/11/04 06:37:17;;;;;;;55.23;41.33;;;;;;;8.53;100.00;100289.81;1803809;79;21176;-60
2022/11/04 06:39:44;;;;;;;52.03;38.77;;;;;;;8.53;100.00;100289.81;1803461;79;21391;-77
2022/11/04 06:42:11;;;;;;;50.70;38.33;;;;;;;8.50;100.00;100287.55;1803066;79;21710;-59
2022/11/04 06:44:39;;;;;;;51.87;36.97;;;;;;;8.55;100.00;100282.33;1803717;79;21374;-60
2022/11/04 06:47:06;;;;;;;48.97;35.07;;;;;;;8.59;100.00;100285.71;1803546;79;21319;-59
2022/11/04 06:49:34;;;;;;;49.37;35.80;;;;;;;8.59;100.00;100285.71;1779131;79;21320;-60
2022/11/04 06:52:01;;;;;;;44.47;31.80;;;;;;;8.55;100.00;100288.82;1802880;79;21348;-59
2022/11/04 06:54:28;;;;;;;40.87;28.97;;;;;;;8.56;100.00;100287.38;1803341;79;21528;-59
2022/11/04 06:56:56;;;;;;;37.17;27.47;;;;;;;8.62;100.00;100285.88;1799373;79;21440;-59
2022/11/04 06:59:24;;;;;;;40.07;28.43;;;;;;;8.62;100.00;100285.88;1796374;79;21476;-59
2022/11/04 07:01:52;;;;;;;40.00;27.30;;;;;;;8.63;100.00;100283.09;1795840;79;21144;-61
2022/11/04 07:04:19;;;;;;;37.43;26.63;;;;;;;8.71;100.00;100284.84;1796208;79;21387;-59
2022/11/04 07:06:47;;;;;;;40.10;28.07;;;;;;;8.76;100.00;100287.27;1796361;79;21341;-59
2022/11/04 07:09:14;;;;;;;35.47;26.43;;;;;;;8.82;100.00;100283.16;1796152;79;21193;-59
2022/11/04 07:11:42;;;;;;;37.50;27.23;;;;;;;8.82;100.00;100283.16;1796180;79;21549;-59
2022/11/04 07:14:10;;;;;;;38.20;27.70;;;;;;;9.00;100.00;100286.31;1795719;79;21463;-62
2022/11/04 07:16:37;;;;;;;35.77;24.10;;;;;;;9.00;100.00;100286.31;1796388;79;21959;-59
2022/11/04 07:19:04;;;;;;;33.57;25.17;;;;;;;9.06;100.00;100281.42;1796343;79;22168;-59
2022/11/04 07:21:32;;;;;;;32.30;24.03;;;;;;;9.06;100.00;100281.42;1796520;79;21681;-59
2022/11/04 07:24:00;;;;;;;38.03;25.57;;;;;;;9.09;100.00;100280.59;1796544;79;21390;-59
2022/11/04 07:26:27;;;;;;;29.67;21.80;;;;;;;9.15;100.00;100281.18;1795906;79;21678;-59
2022/11/04 07:28:55;;;;;;;27.90;20.33;;;;;;;9.22;100.00;100287.31;1796359;79;21712;-59
2022/11/04 07:31:22;;;;;;;24.87;18.77;;;;;;;9.28;100.00;100282.39;1796384;79;21552;-62
2022/11/04 07:33:50;;;;;;;21.83;15.77;;;;;;;9.33;100.00;100292.61;1796449;79;21712;-59
2022/11/04 07:36:17;;;;;;;22.47;15.73;;;;;;;9.37;100.00;100291.77;1796326;79;21518;-62
2022/11/04 07:38:45;;;;;;;24.27;16.73;;;;;;;9.41;100.00;100295.64;1796426;79;22295;-61
2022/11/04 07:41:12;;;;;;;23.90;15.73;;;;;;;9.43;100.00;100293.19;1796471;79;21688;-59
2022/11/04 07:43:41;;;;;;;22.90;16.80;;;;;;;9.47;100.00;100296.23;1796675;79;21692;-59
2022/11/04 07:46:10;;;;;;;22.07;15.00;;;;;;;9.56;100.00;100290.48;1796323;79;22151;-59
2022/11/04 07:48:37;;;;;;;23.40;17.20;;;;;;;9.61;100.00;100294.16;1795818;79;21656;-60
2022/11/04 07:51:07;;;;;;;23.30;17.10;;;;;;;9.63;100.00;100299.21;1796387;79;21707;-61
2022/11/04 07:53:34;;;;;;;25.97;17.17;;;;;;;9.69;100.00;100297.19;1796618;79;21667;-59
2022/11/04 07:56:06;;;;;;;21.53;16.93;;;;;;;9.73;100.00;100291.45;1796489;79;21693;-62
2022/11/04 07:58:34;;;;;;;23.00;18.43;;;;;;;9.78;100.00;100295.34;1803105;79;21697;-59
2022/11/04 08:01:10;;;;;;;28.93;19.90;;;;;;;9.84;100.00;100305.84;1804029;79;22493;-59
2022/11/04 08:03:37;;;;;;;25.90;20.67;;;;;;;9.86;100.00;100306.98;1802462;79;21772;-59
2022/11/04 08:06:05;;;;;;;27.67;18.97;;;;;;;10.04;100.00;100300.95;1803658;79;21698;-59
2022/11/04 08:08:33;;;;;;;26.57;18.53;;;;;;;10.12;100.00;100302.66;1803216;79;21625;-59
2022/11/04 08:11:06;;;;;;;25.10;19.17;;;;;;;10.07;100.00;100297.97;1803756;79;21656;-60
2022/11/04 08:13:35;;;;;;;;;;;;;;;10.03;100.00;100308.92;1806318;79;21637;-59
2022/11/04 08:16:11;;;;;;;25.03;18.43;;;;;;;10.06;100.00;100300.77;1803982;79;20159;-61
2022/11/04 08:18:40;;;;;;;23.67;18.47;;;;;;;10.05;100.00;100302.56;1779682;79;22701;-59
2022/11/04 08:21:08;;;;;;;22.83;16.27;;;;;;;10.17;100.00;100295.91;1803688;79;21142;-59
2022/11/04 08:23:37;;;;;;;24.27;17.00;;;;;;;10.17;100.00;100295.91;1803792;79;22159;-59
2022/11/04 08:26:10;;;;;;;21.40;15.97;;;;;;;10.23;100.00;100306.13;1803439;79;22189;-63
2022/11/04 08:28:37;;;;;;;20.97;16.17;;;;;;;10.26;100.00;100295.36;1803188;79;21391;-59
2022/11/04 08:31:09;;;;;;;17.40;13.97;;;;;;;10.29;100.00;100296.80;1803715;79;21751;-58
2022/11/04 08:33:38;;;;;;;19.97;14.03;;;;;;;10.30;100.00;100295.80;1803670;79;22170;-59
2022/11/04 08:36:09;;;;;;;21.57;15.37;;;;;;;10.37;100.00;100301.92;1803155;79;21697;-73
2022/11/04 08:38:36;;;;;;;20.10;14.00;;;;;;;10.44;100.00;100289.78;1804040;79;20994;-58
2022/11/04 08:41:05;;;;;;;19.90;14.90;;;;;;;10.54;100.00;100283.00;1803734;79;20963;-59
2022/11/04 08:43:34;;;;;;;18.73;14.23;;;;;;;10.59;100.00;100291.08;1803676;79;20924;-59
2022/11/04 08:46:01;;;;;;;22.10;14.50;;;;;;;10.67;100.00;100294.87;1803221;79;21565;-77
2022/11/04 08:48:29;;;;;;;17.73;12.47;;;;;;;10.76;100.00;100292.97;1803560;79;21021;-58
2022/11/04 08:50:57;;;;;;;20.20;14.57;;;;;;;10.90;100.00;100292.94;1803826;79;21501;-59
2022/11/04 08:53:24;;;;;;;17.17;14.50;;;;;;;10.90;100.00;100291.63;1803612;79;20979;-59
2022/11/04 08:55:52;;;;;;;18.27;14.47;;;;;;;10.98;100.00;100293.81;1804057;79;21173;-64
2022/11/04 08:58:20;;;;;;;19.57;14.53;;;;;;;11.05;100.00;100296.00;1803131;79;21747;-61
2022/11/04 09:00:47;;;;;;;19.57;13.77;;;;;;;11.15;100.00;100295.22;1803452;79;21335;-59
2022/11/04 09:03:14;;;;;;;17.77;12.80;;;;;;;11.20;100.00;100291.54;1803726;79;20973;-59
2022/11/04 09:05:46;;;;;;;19.90;13.87;;;;;;;11.25;100.00;100289.20;1803595;79;20960;-59
2022/11/04 09:08:15;;;;;;;24.23;17.63;;;;;;;11.24;100.00;100291.98;1803516;79;21482;-64
2022/11/04 09:10:43;;;;;;;20.97;15.53;;;;;;;11.29;100.00;100290.91;1803718;79;21365;-59
2022/11/04 09:13:11;;;;;;;21.87;15.03;;;;;;;11.38;100.00;100288.50;1803721;79;21011;-59
2022/11/04 09:15:38;;;;;;;17.57;11.97;;;;;;;11.46;100.00;100287.06;1778948;79;20999;-60
2022/11/04 09:18:06;;;;;;;16.53;13.13;;;;;;;11.52;100.00;100288.13;1803803;79;20960;-67
2022/11/04 09:20:37;;;;;;;16.57;12.33;;;;;;;11.58;100.00;100289.97;1803084;79;20952;-61
2022/11/04 09:23:04;;;;;;;20.00;15.17;;;;;;;11.63;100.00;100287.12;1803714;79;21197;-60
2022/11/04 09:25:32;;;;;;;20.33;15.97;;;;;;;11.71;100.00;100286.67;1803790;79;20979;-59
2022/11/04 09:27:59;;;;;;;18.60;14.37;;;;;;;11.77;100.00;100280.17;1803869;79;20983;-60
2022/11/04 09:30:26;;;;;;;21.20;15.63;;;;;;;11.85;100.00;100282.67;1803631;79;21051;-76
2022/11/04 09:32:54;;;;;;;21.33;13.73;;;;;;;11.93;100.00;100279.94;1803500;79;21237;-59
2022/11/04 09:35:22;;;;;;;16.17;13.13;;;;;;;12.02;100.00;100275.36;1803832;79;21142;-61
2022/11/04 09:37:49;;;;;;;19.43;13.17;;;;;;;12.03;100.00;100274.35;1803669;79;20861;-60
2022/11/04 09:40:18;;;;;;;18.27;13.27;;;;;;;12.02;100.00;100274.05;1803750;79;21458;-60
2022/11/04 09:43:01;;;;;;;16.13;12.63;;;;;;;12.05;100.00;100271.56;1803804;79;20916;-60
2022/11/04 09:45:29;;;;;;;15.35;11.80;;;;;;;12.05;100.00;100270.26;1803643;79;21266;-60
2022/11/04 09:48:03;;;;;;;18.30;13.27;;;;;;;12.06;100.00;100267.44;1803738;79;21999;-60
2022/11/04 09:50:35;;;;;;;19.40;13.50;;;;;;;12.02;100.00;100273.25;1802571;79;20940;-60
2022/11/04 09:53:16;;;;;;;18.83;14.20;;;;;;;11.95;100.00;100275.02;1803681;79;20996;-60
2022/11/04 09:55:59;;;;;;;18.83;15.43;;;;;;;11.89;100.00;100280.02;1803636;79;21098;-60
2022/11/04 09:58:30;;;;;;;17.77;12.57;;;;;;;11.82;100.00;100278.29;1797959;79;21026;-62
2022/11/04 10:01:15;;;;;;;18.73;14.43;;;;;;;11.72;100.00;100281.25;1796518;79;21241;-60
2022/11/04 10:04:21;;;;;;;24.47;18.10;;;;;;;11.64;100.00;100280.89;1795912;79;21238;-60
2022/11/04 10:07:06;;;;;;;19.10;13.67;;;;;;;11.61;100.00;100284.37;1796063;79;20885;-63
2022/11/04 10:10:02;;;;;;;16.80;13.50;;;;;;;11.49;100.00;100288.00;1795463;79;20968;-60
2022/11/04 10:13:09;;;;;;;16.03;12.20;;;;;;;11.38;100.00;100288.50;1795830;79;21585;-61
2022/11/04 13:34:31;;;;;;;35.03;21.93;;;;;;;8.30;100.00;100282.41;1839984;78;23101;-60
2022/11/04 13:37:19;;;;;;;19.87;13.23;;;;;;;8.33;100.00;100287.23;1815395;79;21444;-60
2022/11/04 13:39:56;;;;;;;16.50;10.63;;;;;;;8.45;100.00;100295.04;1815693;79;21734;-61
2022/11/04 13:45:54;;;;;;;11.23;7.27;;;;;;;8.47;100.00;100294.86;1815772;79;21634;-59
2022/11/04 13:48:25;;;;;;;11.63;7.95;;;;;;;8.46;100.00;100301.04;1814928;79;22857;-60
2022/11/04 13:51:10;;;;;;;17.73;12.23;;;;;;;8.46;100.00;100293.25;1815568;78;21363;-62
2022/11/04 13:53:55;;;;;;;11.30;7.53;;;;;;;8.41;100.00;100298.95;1815485;79;21235;-61
2022/11/04 13:56:36;;;;;;;32.60;18.47;;;;;;;8.41;100.00;100298.95;1814944;79;21364;-60
2022/11/04 13:59:28;;;;;;;28.87;18.63;;;;;;;8.44;100.00;100297.78;1815268;78;21996;-60
2022/11/04 14:02:23;;;;;;;40.73;26.25;;;;;;;8.42;100.00;100295.38;1815679;78;21597;-60
2022/11/04 14:04:51;;;;;;;40.40;26.67;;;;;;;8.35;100.00;100296.98;1815533;79;21043;-60
2022/11/04 14:07:18;;;;;;;27.00;18.70;;;;;;;8.28;100.00;100301.22;1815453;78;21474;-60
2022/11/04 14:09:51;;;;;;;19.50;12.07;;;;;;;8.20;100.00;100303.35;1815411;79;21937;-60
2022/11/04 14:12:27;;;;;;;22.93;15.07;;;;;;;8.15;100.00;100307.44;1815026;78;21634;-60
2022/11/04 14:15:12;;;;;;;23.20;15.60;;;;;;;7.99;100.00;100305.20;1815581;78;21617;-60
2022/11/04 14:17:45;;;;;;;13.93;9.10;;;;;;;7.99;100.00;100305.20;1807902;78;21903;-65
2022/11/04 14:20:25;;;;;;;14.13;10.70;;;;;;;7.94;100.00;100308.75;1816009;78;21782;-60
2022/11/04 14:22:55;;;;;;;14.27;9.80;;;;;;;7.91;100.00;100307.78;1815711;78;21703;-60
2022/11/04 14:25:33;;;;;;;11.40;7.20;;;;;;;7.88;100.00;100313.32;1814606;78;21339;-60
2022/11/04 14:28:17;;;;;;;12.33;7.57;;;;;;;7.90;100.00;100319.63;1815689;78;21065;-60
2022/11/04 14:30:55;;;;;;;10.37;5.93;;;;;;;7.90;100.00;100319.63;1814495;78;21266;-73
2022/11/04 14:33:32;;;;;;;9.13;6.33;;;;;;;7.82;100.00;100320.45;1802187;79;21289;-61
2022/11/04 14:36:25;;;;;;;10.17;6.70;;;;;;;7.82;100.00;100320.45;1795731;79;21313;-60
2022/11/04 14:38:57;;;;;;;9.00;6.80;;;;;;;7.79;100.00;100319.48;1796485;79;21621;-60
2022/11/04 14:41:41;;;;;;;10.40;6.43;;;;;;;7.79;100.00;100314.28;1797154;79;21268;-61
2022/11/04 14:44:32;;;;;;;13.87;7.20;;;;;;;7.75;100.00;100315.59;1795736;79;20933;-66
2022/11/04 14:47:15;;;;;;;9.93;7.20;;;;;;;7.72;100.00;100320.61;1795103;79;22015;-60
2022/11/04 14:49:57;;;;;;;10.77;7.43;;;;;;;7.72;100.00;100320.61;1795476;79;21249;-61
2022/11/04 14:52:36;;;;;;;12.40;8.17;;;;;;;7.70;100.00;100326.95;1796673;79;21299;-59
2022/11/04 14:55:19;;;;;;;11.80;8.07;;;;;;;7.69;100.00;100322.71;1796026;79;21258;-61
2022/11/04 14:57:54;;;;;;;13.37;9.03;;;;;;;7.68;100.00;100322.39;1796348;79;21356;-59
2022/11/04 15:00:39;;;;;;;31.13;20.37;;;;;;;7.66;100.00;100319.98;1795968;79;21294;-59
2022/11/04 15:03:26;;;;;;;38.07;24.77;;;;;;;7.67;100.00;100321.59;1796128;79;21148;-59
2022/11/04 15:05:59;;;;;;;26.43;16.53;;;;;;;7.67;100.00;100321.59;1796046;79;21214;-60
2022/11/04 15:08:37;;;;;;;31.03;22.30;;;;;;;7.65;100.00;100322.25;1795848;79;21195;-61
2022/11/04 15:12:49;;;;;;;44.27;28.33;;;;;;;7.59;100.00;100325.97;1796465;79;21260;-61
2022/11/04 15:13:49;;;;;;;38.50;24.97;;;;;;;7.54;100.00;100327.27;1796343;79;21520;-59
2022/11/04 15:16:20;;;;;;;37.80;23.70;;;;;;;7.54;100.00;100327.27;1795568;79;21287;-60
2022/11/04 15:18:49;;;;;;;45.40;30.07;;;;;;;7.48;100.00;100324.50;1796478;79;21208;-59
2022/11/04 15:21:17;;;;;;;38.50;23.80;;;;;;;7.42;100.00;100331.13;1796461;79;21187;-59
2022/11/04 15:23:51;;;;;;;31.33;20.93;;;;;;;7.35;100.00;100324.16;1796521;79;21104;-61
2022/11/04 15:26:26;;;;;;;30.53;20.47;;;;;;;7.29;100.00;100320.43;1794863;79;21325;-59
2022/11/04 15:28:53;;;;;;;22.83;16.43;;;;;;;7.27;100.00;100320.60;1796161;79;21110;-61
2022/11/04 15:31:24;;;;;;;23.07;16.17;;;;;;;7.23;100.00;100320.56;1796353;79;21109;-60